Time;durP1;ratioP1;P1;durP2;ratioP2;P2;SDS_P1;SDS_P2;PMS_P1;PMS_P2;Temp;Humidity;BMP_temperature;BMP_pressure;BME280_temperature;BME280_humidity;BME280_pressure;Samples;Min_cycle;Max_cycle;Signal;HPM_P1;HPM_P2
2022/01/01 00:02:25;;;;;;;;;;;5.40;99.90;;;;;;4987049;28;19933;-67
2022/01/01 00:05:04;;;;;;;;;;;5.40;99.90;;;;;;4984895;28;19929;-66
2022/01/01 00:07:31;;;;;;;;;;;5.40;99.90;;;;;;4989231;28;20016;-69
2022/01/01 00:09:58;;;;;;;;;;;5.40;99.90;;;;;;4989000;28;20460;-63
2022/01/01 00:12:28;;;;;;;;;;;5.40;99.90;;;;;;4986585;28;20330;-64
2022/01/01 00:14:54;;;;;;;;;;;5.40;99.90;;;;;;4987155;28;20028;-64
2022/01/01 00:17:21;;;;;;;;;;;5.40;99.90;;;;;;4984648;28;20011;-66
2022/01/01 00:19:48;;;;;;;;;;;5.30;99.90;;;;;;4985744;28;20086;-69
2022/01/01 00:22:15;;;;;;;;;;;5.30;99.90;;;;;;4985151;28;20023;-66
2022/01/01 00:24:42;;;;;;;;;;;5.40;99.90;;;;;;4981801;28;20024;-67
2022/01/01 00:27:08;;;;;;;;;;;5.30;99.90;;;;;;4983698;28;19929;-66
2022/01/01 00:29:36;;;;;;;;;;;5.40;99.90;;;;;;4998950;28;19929;-63
2022/01/01 00:32:03;;;;;;;;;;;5.40;99.90;;;;;;4982529;28;19968;-67
2022/01/01 00:34:35;;;;;;;;;;;5.40;99.90;;;;;;4986005;28;19930;-68
2022/01/01 00:37:03;;;;;;;;;;;5.40;99.90;;;;;;4985731;28;19929;-66
2022/01/01 00:39:30;;;;;;;;;;;5.40;99.90;;;;;;4985565;28;20015;-65
2022/01/01 00:41:57;;;;;;;;;;;5.40;99.90;;;;;;4986447;28;20050;-65
2022/01/01 00:44:24;;;;;;;;;;;5.30;99.90;;;;;;4985665;28;19972;-70
2022/01/01 00:46:51;;;;;;;;;;;5.30;99.90;;;;;;4987688;28;20016;-69
2022/01/01 00:49:20;;;;;;;;;;;5.30;99.90;;;;;;4989397;28;19975;-68
2022/01/01 00:51:47;;;;;;;;;;;5.30;99.90;;;;;;4988400;28;19932;-68
2022/01/01 00:54:14;;;;;;;;;;;5.30;99.90;;;;;;4983821;28;20296;-65
2022/01/01 00:56:41;;;;;;;;;;;5.30;99.90;;;;;;4986529;28;20019;-65
2022/01/01 00:59:08;;;;;;;;;;;5.30;99.90;;;;;;4993880;28;20016;-66
2022/01/01 01:01:36;;;;;;;;;;;5.30;99.90;;;;;;4989453;28;20020;-67
2022/01/01 01:04:04;;;;;;;;;;;5.30;99.90;;;;;;4992570;28;19936;-68
2022/01/01 01:06:30;;;;;;;;;;;5.30;99.90;;;;;;4988926;28;20622;-65
2022/01/01 01:08:59;;;;;;;;;;;5.30;99.90;;;;;;5006650;28;20370;-66
2022/01/01 01:11:27;;;;;;;;;;;5.30;99.90;;;;;;4990642;28;19968;-66
2022/01/01 01:14:07;;;;;;;;;;;5.30;99.90;;;;;;4991420;28;19959;-67
2022/01/01 01:16:34;;;;;;;;;;;5.30;99.90;;;;;;4988746;28;20932;-68
2022/01/01 01:19:01;;;;;;;;;;;5.30;99.90;;;;;;4993246;28;20028;-65
2022/01/01 01:21:28;;;;;;;;;;;5.30;99.90;;;;;;4992723;28;20690;-68
2022/01/01 01:23:55;;;;;;;;;;;5.30;99.90;;;;;;4990009;28;19993;-69
2022/01/01 01:26:23;;;;;;;;;;;5.30;99.90;;;;;;4990528;28;20059;-66
2022/01/01 01:28:51;;;;;;;;;;;5.30;99.90;;;;;;4992212;28;20448;-66
2022/01/01 01:31:19;;;;;;;;;;;5.30;99.90;;;;;;4990118;28;20019;-66
2022/01/01 01:33:46;;;;;;;;;;;5.30;99.90;;;;;;4988396;28;21291;-67
2022/01/01 01:36:13;;;;;;;;;;;5.40;99.90;;;;;;4989605;28;19996;-69
2022/01/01 01:38:39;;;;;;;;;;;5.40;99.90;;;;;;4985325;28;20071;-65
2022/01/01 01:41:07;;;;;;;;;;;5.40;99.90;;;;;;4991420;28;19944;-68
2022/01/01 01:43:34;;;;;;;;;;;5.40;99.90;;;;;;4988259;28;20015;-66
2022/01/01 01:46:04;;;;;;;;;;;5.40;99.90;;;;;;4992841;28;21135;-67
2022/01/01 01:48:33;;;;;;;;;;;5.40;99.90;;;;;;4988803;28;19929;-66
2022/01/01 01:50:59;;;;;;;;;;;5.40;99.90;;;;;;4992040;28;20039;-65
2022/01/01 01:53:27;;;;;;;;;;;5.40;99.90;;;;;;4990639;28;20021;-67
2022/01/01 01:55:54;;;;;;;;;;;5.30;99.90;;;;;;4983070;28;19999;-67
2022/01/01 01:58:22;;;;;;;;;;;5.30;99.90;;;;;;5005727;28;20358;-68
2022/01/01 02:01:20;;;;;;;;;;;5.40;99.90;;;;;;4986034;28;20107;-69
2022/01/01 02:03:48;;;;;;;;;;;5.40;99.90;;;;;;4991320;28;19960;-69
2022/01/01 02:06:15;;;;;;;;;;;5.30;99.90;;;;;;4989759;28;19933;-66
2022/01/01 02:08:43;;;;;;;;;;;5.30;99.90;;;;;;4989787;28;20036;-65
2022/01/01 02:11:10;;;;;;;;;;;5.30;99.90;;;;;;4987376;28;19929;-69
2022/01/01 02:13:59;;;;;;;;;;;5.30;99.90;;;;;;4991815;28;19929;-68
2022/01/01 02:18:51;;;;;;;;;;;5.30;99.90;;;;;;4991039;28;20036;-67
2022/01/01 02:21:20;;;;;;;;;;;5.30;99.90;;;;;;4989504;28;20007;-67
2022/01/01 02:23:47;;;;;;;;;;;5.30;99.90;;;;;;4988432;28;20471;-68
2022/01/01 02:26:15;;;;;;;;;;;5.20;99.90;;;;;;4991118;28;20019;-68
2022/01/01 02:28:43;;;;;;;;;;;5.30;99.90;;;;;;4989045;28;20033;-66
2022/01/01 02:31:10;;;;;;;;;;;5.30;99.90;;;;;;4993180;28;20038;-66
2022/01/01 02:33:37;;;;;;;;;;;5.20;99.90;;;;;;4991007;28;19930;-69
2022/01/01 02:36:04;;;;;;;;;;;5.20;99.90;;;;;;4989402;28;20044;-67
2022/01/01 02:38:32;;;;;;;;;;;5.20;99.90;;;;;;4986675;28;20449;-69
2022/01/01 02:40:59;;;;;;;;;;;5.20;99.90;;;;;;4989992;28;20012;-67
2022/01/01 02:43:26;;;;;;;;;;;5.30;99.90;;;;;;4989756;28;20678;-67
2022/01/01 02:45:53;;;;;;;;;;;5.30;99.90;;;;;;4987588;28;20353;-68
2022/01/01 02:48:20;;;;;;;;;;;5.30;99.90;;;;;;4989778;28;20018;-70
2022/01/01 02:50:50;;;;;;;;;;;5.30;99.90;;;;;;4985504;28;20020;-66
2022/01/01 02:53:17;;;;;;;;;;;5.30;99.90;;;;;;4993086;28;20024;-68
2022/01/01 02:55:44;;;;;;;;;;;5.30;99.90;;;;;;4989944;28;20254;-69
2022/01/01 02:58:11;;;;;;;;;;;5.30;99.90;;;;;;4991039;28;19929;-66
2022/01/01 03:00:39;;;;;;;;;;;5.30;99.90;;;;;;4988062;28;20034;-67
2022/01/01 03:03:06;;;;;;;;;;;5.30;99.90;;;;;;4990704;28;19929;-65
2022/01/01 03:05:35;;;;;;;;;;;5.20;99.90;;;;;;4990578;28;19929;-67
2022/01/01 03:08:02;;;;;;;;;;;5.00;99.90;;;;;;4990292;28;19995;-68
2022/01/01 03:10:29;;;;;;;;;;;4.90;99.90;;;;;;4991904;28;20143;-66
2022/01/01 03:12:55;;;;;;;;;;;4.70;99.90;;;;;;4993621;28;19929;-65
2022/01/01 03:15:22;;;;;;;;;;;4.60;99.90;;;;;;4990445;28;20082;-69
2022/01/01 03:17:49;;;;;;;;;;;4.40;99.90;;;;;;4991828;28;19933;-66
2022/01/01 03:20:16;;;;;;;;;;;4.30;99.90;;;;;;4991394;28;20335;-66
2022/01/01 03:22:43;;;;;;;;;;;4.20;99.90;;;;;;4990953;28;19930;-67
2022/01/01 03:25:09;;;;;;;;;;;4.10;99.90;;;;;;4991478;28;20047;-68
2022/01/01 03:27:36;;;;;;;;;;;4.00;99.90;;;;;;4992444;28;19968;-66
2022/01/01 03:30:03;;;;;;;;;;;4.00;99.90;;;;;;4989739;28;19959;-67
2022/01/01 03:32:30;;;;;;;;;;;4.00;99.90;;;;;;4972152;28;19936;-66
2022/01/01 03:34:57;;;;;;;;;;;3.90;99.90;;;;;;4991340;28;20012;-67
2022/01/01 03:37:24;;;;;;;;;;;3.90;99.90;;;;;;4993048;28;19933;-69
2022/01/01 03:39:50;;;;;;;;;;;3.90;99.90;;;;;;4992262;28;20044;-68
2022/01/01 03:42:17;;;;;;;;;;;3.90;99.90;;;;;;4991118;28;19937;-64
2022/01/01 03:44:44;;;;;;;;;;;3.90;99.90;;;;;;4989393;28;20000;-69
2022/01/01 03:47:11;;;;;;;;;;;4.00;99.90;;;;;;4990121;28;19991;-65
2022/01/01 03:49:38;;;;;;;;;;;4.00;99.90;;;;;;4991181;28;19964;-66
2022/01/01 03:52:05;;;;;;;;;;;3.90;99.90;;;;;;4989903;28;19929;-66
2022/01/01 03:54:32;;;;;;;;;;;3.90;99.90;;;;;;4989466;28;20062;-66
2022/01/01 03:56:59;;;;;;;;;;;3.90;99.90;;;;;;4991100;28;19983;-67
2022/01/01 03:59:26;;;;;;;;;;;3.90;99.90;;;;;;4991479;28;20010;-67
2022/01/01 04:01:54;;;;;;;;;;;3.90;99.90;;;;;;4991423;28;19980;-66
2022/01/01 04:04:23;;;;;;;;;;;3.90;99.90;;;;;;4991835;28;20542;-67
2022/01/01 04:06:51;;;;;;;;;;;3.90;99.90;;;;;;4991454;28;20036;-68
2022/01/01 04:09:17;;;;;;;;;;;3.80;99.90;;;;;;4991683;28;19935;-68
2022/01/01 04:11:44;;;;;;;;;;;3.80;99.90;;;;;;4992656;28;19977;-67
2022/01/01 04:14:14;;;;;;;;;;;3.80;99.90;;;;;;4989927;28;19929;-68
2022/01/01 04:16:41;;;;;;;;;;;3.80;99.90;;;;;;4989945;28;20027;-68
2022/01/01 04:19:08;;;;;;;;;;;3.70;99.90;;;;;;4982899;28;19994;-65
2022/01/01 04:21:35;;;;;;;;;;;3.60;99.90;;;;;;4988540;28;19930;-68
2022/01/01 04:24:02;;;;;;;;;;;3.50;99.90;;;;;;4990121;28;20019;-67
2022/01/01 04:26:29;;;;;;;;;;;3.50;99.90;;;;;;4986717;28;19929;-69
2022/01/01 04:28:56;;;;;;;;;;;3.50;99.90;;;;;;4993840;28;19929;-65
2022/01/01 04:31:22;;;;;;;;;;;3.50;99.90;;;;;;4994488;28;20017;-66
2022/01/01 04:33:49;;;;;;;;;;;3.50;99.90;;;;;;4997038;28;19951;-66
2022/01/01 04:36:16;;;;;;;;;;;3.50;99.90;;;;;;4995223;28;20889;-66
2022/01/01 04:38:45;;;;;;;;;;;3.40;99.90;;;;;;4997239;28;20056;-70
2022/01/01 04:41:12;;;;;;;;;;;3.40;99.90;;;;;;4998252;28;20004;-67
2022/01/01 04:43:44;;;;;;;;;;;3.40;99.90;;;;;;4998203;28;20243;-66
2022/01/01 04:46:11;;;;;;;;;;;3.40;99.90;;;;;;4997016;28;20032;-69
2022/01/01 04:48:40;;;;;;;;;;;3.50;99.90;;;;;;4994661;28;20074;-65
2022/01/01 04:51:08;;;;;;;;;;;3.40;99.90;;;;;;4998951;28;19929;-66
2022/01/01 04:53:35;;;;;;;;;;;3.40;99.90;;;;;;4992400;28;20123;-67
2022/01/01 04:56:06;;;;;;;;;;;3.40;99.90;;;;;;4995688;28;20373;-67
2022/01/01 04:58:33;;;;;;;;;;;3.40;99.90;;;;;;4993916;28;20031;-65
2022/01/01 05:01:00;;;;;;;;;;;3.40;99.90;;;;;;4997152;28;19957;-65
2022/01/01 05:03:27;;;;;;;;;;;3.30;99.90;;;;;;4999273;28;20025;-66
2022/01/01 05:05:54;;;;;;;;;;;3.20;99.90;;;;;;4993886;28;19960;-65
2022/01/01 05:08:21;;;;;;;;;;;3.20;99.90;;;;;;4995396;28;20335;-65
2022/01/01 05:10:47;;;;;;;;;;;3.20;99.90;;;;;;4994704;28;19929;-68
2022/01/01 05:13:14;;;;;;;;;;;3.30;99.90;;;;;;4998430;28;19933;-66
2022/01/01 05:15:41;;;;;;;;;;;3.20;99.90;;;;;;4994318;28;20048;-69
2022/01/01 05:18:08;;;;;;;;;;;3.10;99.90;;;;;;4998452;28;19936;-65
2022/01/01 05:20:35;;;;;;;;;;;3.10;99.90;;;;;;4993284;28;20042;-65
2022/01/01 05:23:02;;;;;;;;;;;3.10;99.90;;;;;;4995740;28;19991;-67
2022/01/01 05:25:29;;;;;;;;;;;3.10;99.90;;;;;;4993337;28;20491;-66
2022/01/01 05:27:55;;;;;;;;;;;3.20;99.90;;;;;;4996294;28;20806;-66
2022/01/01 05:30:22;;;;;;;;;;;3.10;99.90;;;;;;4994981;28;20108;-66
2022/01/01 05:32:49;;;;;;;;;;;3.20;99.90;;;;;;4995179;28;19929;-66
2022/01/01 05:35:16;;;;;;;;;;;3.20;99.90;;;;;;4995577;28;20016;-67
2022/01/01 05:37:43;;;;;;;;;;;3.20;99.90;;;;;;4995516;28;20022;-65
2022/01/01 05:40:10;;;;;;;;;;;3.20;99.90;;;;;;4993975;28;19939;-66
2022/01/01 05:42:37;;;;;;;;;;;3.20;99.90;;;;;;4990151;28;19991;-66
2022/01/01 05:45:04;;;;;;;;;;;3.20;99.90;;;;;;4992684;28;19939;-67
2022/01/01 05:47:32;;;;;;;;;;;3.20;99.90;;;;;;4991723;28;19929;-67
2022/01/01 05:49:58;;;;;;;;;;;3.20;99.90;;;;;;4992160;28;19929;-67
2022/01/01 05:52:25;;;;;;;;;;;3.20;99.90;;;;;;4991432;28;20151;-65
2022/01/01 05:54:52;;;;;;;;;;;3.20;99.90;;;;;;4992335;28;19956;-67
2022/01/01 05:57:19;;;;;;;;;;;3.20;99.90;;;;;;4990924;28;20060;-65
2022/01/01 05:59:46;;;;;;;;;;;3.30;99.90;;;;;;4989034;28;19988;-68
2022/01/01 06:02:12;;;;;;;;;;;3.30;99.90;;;;;;4993358;28;20067;-67
2022/01/01 06:04:39;;;;;;;;;;;3.30;99.90;;;;;;4989612;28;20607;-66
2022/01/01 06:07:07;;;;;;;;;;;3.30;99.90;;;;;;4987988;28;19925;-66
2022/01/01 06:09:34;;;;;;;;;;;3.30;99.90;;;;;;4991714;28;19984;-66
2022/01/01 06:12:01;;;;;;;;;;;3.30;99.90;;;;;;4991901;28;20012;-67
2022/01/01 06:14:27;;;;;;;;;;;3.30;99.90;;;;;;4989863;28;19929;-66
2022/01/01 06:16:55;;;;;;;;;;;3.30;99.90;;;;;;4989922;28;20094;-65
2022/01/01 06:19:22;;;;;;;;;;;3.30;99.90;;;;;;4991845;28;19929;-69
2022/01/01 06:21:49;;;;;;;;;;;3.20;99.90;;;;;;4991799;28;19995;-65
2022/01/01 06:24:16;;;;;;;;;;;3.30;99.90;;;;;;4990008;28;20031;-68
2022/01/01 06:26:43;;;;;;;;;;;3.20;99.90;;;;;;4989239;28;20026;-69
2022/01/01 06:29:09;;;;;;;;;;;3.20;99.90;;;;;;4990650;28;19965;-70
2022/01/01 06:31:36;;;;;;;;;;;3.20;99.90;;;;;;4991283;28;19929;-66
2022/01/01 06:34:03;;;;;;;;;;;3.20;99.90;;;;;;4987785;28;20082;-69
2022/01/01 06:36:30;;;;;;;;;;;3.20;99.90;;;;;;4988568;28;20240;-68
2022/01/01 06:38:57;;;;;;;;;;;3.20;99.90;;;;;;4990833;28;20067;-67
2022/01/01 06:41:25;;;;;;;;;;;3.10;99.90;;;;;;4992028;28;19952;-69
2022/01/01 06:43:52;;;;;;;;;;;3.10;99.90;;;;;;4989595;28;20028;-67
2022/01/01 06:46:19;;;;;;;;;;;3.10;99.90;;;;;;4971618;28;19936;-66
2022/01/01 06:48:46;;;;;;;;;;;3.10;99.90;;;;;;4990454;28;19968;-70
2022/01/01 06:51:13;;;;;;;;;;;3.10;99.90;;;;;;4988823;28;20003;-66
2022/01/01 06:53:40;;;;;;;;;;;3.00;99.90;;;;;;4991545;28;19995;-67
2022/01/01 06:56:07;;;;;;;;;;;2.90;99.90;;;;;;4991327;28;19964;-68
2022/01/01 06:58:34;;;;;;;;;;;2.90;99.90;;;;;;4990848;28;20029;-65
2022/01/01 07:01:01;;;;;;;;;;;2.90;99.90;;;;;;4991637;28;20020;-67
2022/01/01 07:03:28;;;;;;;;;;;2.90;99.90;;;;;;4989255;28;19945;-66
2022/01/01 07:05:55;;;;;;;;;;;2.90;99.90;;;;;;4991357;28;19929;-66
2022/01/01 07:08:22;;;;;;;;;;;2.80;99.90;;;;;;4991502;28;21511;-65
2022/01/01 07:10:49;;;;;;;;;;;2.80;99.90;;;;;;4990260;28;20048;-65
2022/01/01 07:13:16;;;;;;;;;;;2.70;99.90;;;;;;4989313;28;20047;-65
2022/01/01 07:15:43;;;;;;;;;;;2.70;99.90;;;;;;4991272;28;19945;-67
2022/01/01 07:18:10;;;;;;;;;;;2.70;99.90;;;;;;4990906;28;20000;-71
2022/01/01 07:20:37;;;;;;;;;;;2.60;99.90;;;;;;4989371;28;19925;-66
2022/01/01 07:23:03;;;;;;;;;;;2.60;99.90;;;;;;4990551;28;20026;-67
2022/01/01 07:25:30;;;;;;;;;;;2.60;99.90;;;;;;4990306;28;20397;-66
2022/01/01 07:27:57;;;;;;;;;;;2.50;99.90;;;;;;4992720;28;19929;-68
2022/01/01 07:30:24;;;;;;;;;;;2.50;99.90;;;;;;4989041;28;20020;-66
2022/01/01 07:32:51;;;;;;;;;;;2.50;99.90;;;;;;4993951;28;20017;-67
2022/01/01 07:35:19;;;;;;;;;;;2.50;99.90;;;;;;4990028;28;20677;-66
2022/01/01 07:37:46;;;;;;;;;;;2.60;99.90;;;;;;4993073;28;20306;-66
2022/01/01 07:40:13;;;;;;;;;;;2.50;99.90;;;;;;4991256;28;19929;-69
2022/01/01 07:42:41;;;;;;;;;;;2.50;99.90;;;;;;4988851;28;19995;-67
2022/01/01 07:45:08;;;;;;;;;;;2.50;99.90;;;;;;4988535;28;20348;-66
2022/01/01 07:47:35;;;;;;;;;;;2.50;99.90;;;;;;4990339;28;19960;-65
2022/01/01 07:50:03;;;;;;;;;;;2.40;99.90;;;;;;4991990;28;20102;-68
2022/01/01 07:52:30;;;;;;;;;;;2.40;99.90;;;;;;4988851;28;20523;-66
2022/01/01 07:54:57;;;;;;;;;;;2.40;99.90;;;;;;4989077;28;20046;-68
2022/01/01 07:57:26;;;;;;;;;;;2.40;99.90;;;;;;4990170;28;19929;-70
2022/01/01 07:59:52;;;;;;;;;;;2.40;99.90;;;;;;4993472;28;21379;-65
2022/01/01 08:02:19;;;;;;;;;;;2.40;99.90;;;;;;4989100;28;20011;-66
2022/01/01 08:04:46;;;;;;;;;;;2.30;99.90;;;;;;4987494;28;19937;-67
2022/01/01 08:07:13;;;;;;;;;;;2.30;99.90;;;;;;4990401;28;20349;-66
2022/01/01 08:10:00;;;;;;;;;;;2.30;99.90;;;;;;4993624;28;19929;-65
2022/01/01 08:12:26;;;;;;;;;;;2.20;99.90;;;;;;4989212;28;19935;-70
2022/01/01 08:14:56;;;;;;;;;;;2.20;99.90;;;;;;4989715;28;19933;-67
2022/01/01 08:17:24;;;;;;;;;;;2.20;99.90;;;;;;4988174;28;20032;-69
2022/01/01 08:19:51;;;;;;;;;;;2.20;99.90;;;;;;4992136;28;20167;-67
2022/01/01 08:22:18;;;;;;;;;;;2.20;99.90;;;;;;4984749;28;20025;-69
2022/01/01 08:24:46;;;;;;;;;;;2.20;99.90;;;;;;4988562;28;20051;-67
2022/01/01 08:27:12;;;;;;;;;;;2.20;99.90;;;;;;4988928;28;20379;-65
2022/01/01 08:29:39;;;;;;;;;;;2.20;99.90;;;;;;4991735;28;20367;-66
2022/01/01 08:32:06;;;;;;;;;;;2.20;99.90;;;;;;4990176;28;19929;-65
2022/01/01 08:34:33;;;;;;;;;;;2.20;99.90;;;;;;4987394;28;20008;-66
2022/01/01 08:37:00;;;;;;;;;;;2.20;99.90;;;;;;4989349;28;20054;-67
2022/01/01 08:39:27;;;;;;;;;;;2.20;99.90;;;;;;4989542;28;20011;-65
2022/01/01 08:41:54;;;;;;;;;;;2.20;99.90;;;;;;4990656;28;19937;-64
2022/01/01 08:44:20;;;;;;;;;;;2.20;99.90;;;;;;4988516;28;19930;-70
2022/01/01 08:46:48;;;;;;;;;;;2.20;99.90;;;;;;4990369;28;19960;-67
2022/01/01 08:49:14;;;;;;;;;;;2.20;99.90;;;;;;4990259;28;19929;-70
2022/01/01 08:51:42;;;;;;;;;;;2.20;99.90;;;;;;4991276;28;20023;-67
2022/01/01 08:54:11;;;;;;;;;;;2.20;99.90;;;;;;4988946;28;20382;-64
2022/01/01 08:56:38;;;;;;;;;;;2.20;99.90;;;;;;4988464;28;20042;-66
2022/01/01 08:59:05;;;;;;;;;;;2.20;99.90;;;;;;4989642;28;19965;-69
2022/01/01 09:01:32;;;;;;;;;;;2.20;99.90;;;;;;4987271;28;19992;-66
2022/01/01 09:03:59;;;;;;;;;;;2.20;99.90;;;;;;4990459;28;19935;-66
2022/01/01 09:06:26;;;;;;;;;;;2.10;99.90;;;;;;4985823;28;20129;-68
2022/01/01 09:08:53;;;;;;;;;;;2.10;99.90;;;;;;4988450;28;19930;-68
2022/01/01 09:11:20;;;;;;;;;;;2.10;99.90;;;;;;4991834;28;19987;-65
2022/01/01 09:13:47;;;;;;;;;;;2.20;99.90;;;;;;4987433;28;19930;-68
2022/01/01 09:16:15;;;;;;;;;;;2.20;99.90;;;;;;4989938;28;20391;-67
2022/01/01 09:18:42;;;;;;;;;;;2.20;99.90;;;;;;4990998;28;20254;-67
2022/01/01 09:21:09;;;;;;;;;;;2.20;99.90;;;;;;4996872;28;19932;-66
2022/01/01 09:23:36;;;;;;;;;;;2.10;99.90;;;;;;4994680;28;20460;-70
2022/01/01 09:26:03;;;;;;;;;;;2.10;99.90;;;;;;4994768;28;20535;-65
2022/01/01 09:28:31;;;;;;;;;;;2.10;99.90;;;;;;4992911;28;19929;-68
2022/01/01 09:30:58;;;;;;;;;;;2.10;99.90;;;;;;4993101;28;20382;-67
2022/01/01 09:33:29;;;;;;;;;;;2.10;99.90;;;;;;4994946;28;19929;-66
2022/01/01 09:36:00;;;;;;;;;;;2.10;99.90;;;;;;4994589;28;19940;-69
2022/01/01 09:38:27;;;;;;;;;;;2.10;99.90;;;;;;4992702;28;19933;-66
2022/01/01 09:40:55;;;;;;;;;;;2.00;99.90;;;;;;4994501;28;20367;-65
2022/01/01 09:43:22;;;;;;;;;;;1.90;99.90;;;;;;4991364;28;20046;-66
2022/01/01 09:45:50;;;;;;;;;;;1.90;99.90;;;;;;4991986;28;20568;-67
2022/01/01 09:48:19;;;;;;;;;;;1.90;99.90;;;;;;4992423;28;20015;-66
2022/01/01 09:50:48;;;;;;;;;;;1.90;99.90;;;;;;4991695;28;20008;-64
2022/01/01 09:53:15;;;;;;;;;;;2.00;99.90;;;;;;4993553;28;19937;-64
2022/01/01 09:55:42;;;;;;;;;;;2.00;99.90;;;;;;4994202;28;20070;-67
2022/01/01 09:58:09;;;;;;;;;;;2.10;99.90;;;;;;4991945;28;19929;-64
2022/01/01 10:00:36;;;;;;;;;;;2.10;99.90;;;;;;4991278;28;19937;-64
2022/01/01 10:03:03;;;;;;;;;;;2.10;99.90;;;;;;4993149;28;19925;-66
2022/01/01 10:05:30;;;;;;;;;;;2.10;99.90;;;;;;4995239;28;19956;-66
2022/01/01 10:08:00;;;;;;;;;;;2.10;99.90;;;;;;4975747;28;20028;-65
2022/01/01 10:10:27;;;;;;;;;;;2.00;99.90;;;;;;4992509;28;19979;-67
2022/01/01 10:12:54;;;;;;;;;;;1.90;99.90;;;;;;4994143;28;20509;-64
2022/01/01 10:15:21;;;;;;;;;;;1.80;99.90;;;;;;4993631;28;19937;-67
2022/01/01 10:17:48;;;;;;;;;;;1.80;99.90;;;;;;4994134;28;19936;-65
2022/01/01 10:20:15;;;;;;;;;;;1.70;99.90;;;;;;4993191;28;19981;-65
2022/01/01 10:22:49;;;;;;;;;;;1.70;99.90;;;;;;4990176;28;19940;-65
2022/01/01 10:28:02;;;;;;;;;;;1.70;99.90;;;;;;4993102;28;19929;-65
2022/01/01 10:30:36;;;;;;;;;;;1.70;99.90;;;;;;4992431;28;20410;-69
2022/01/01 10:33:03;;;;;;;;;;;1.70;99.90;;;;;;4991259;28;19936;-66
2022/01/01 10:35:34;;;;;;;;;;;1.60;99.90;;;;;;4994272;28;20008;-66
2022/01/01 10:38:05;;;;;;;;;;;1.60;99.90;;;;;;4991006;28;19983;-65
2022/01/01 10:40:32;;;;;;;;;;;1.70;99.90;;;;;;4994460;28;19929;-67
2022/01/01 10:42:58;;;;;;;;;;;1.70;99.90;;;;;;4992176;28;19929;-65
2022/01/01 10:45:29;;;;;;;;;;;1.80;99.90;;;;;;4992987;28;20032;-67
2022/01/01 10:50:43;;;;;;;;;;;1.70;99.90;;;;;;4991258;28;19933;-66
2022/01/01 10:53:11;;;;;;;;;;;1.80;99.90;;;;;;4992880;28;20022;-64
2022/01/01 10:55:45;;;;;;;;;;;1.90;99.90;;;;;;4993398;28;20026;-67
2022/01/01 10:58:16;;;;;;;;;;;1.80;99.90;;;;;;4993871;28;19933;-68
2022/01/01 11:00:43;;;;;;;;;;;1.80;99.90;;;;;;4991281;28;20000;-66
2022/01/01 11:03:15;;;;;;;;;;;1.80;99.90;;;;;;4990603;28;20504;-67
2022/01/01 11:05:45;;;;;;;;;;;1.80;99.90;;;;;;4992532;28;20063;-65
2022/01/01 11:08:13;;;;;;;;;;;1.80;99.90;;;;;;4990338;28;19965;-66
2022/01/01 11:10:40;;;;;;;;;;;1.80;99.90;;;;;;4992214;28;20016;-65
2022/01/01 11:13:08;;;;;;;;;;;1.80;99.90;;;;;;4986954;28;19956;-67
2022/01/01 11:15:34;;;;;;;;;;;1.80;99.90;;;;;;4993071;28;20044;-66
2022/01/01 11:18:05;;;;;;;;;;;1.80;99.90;;;;;;4988769;28;19933;-68
2022/01/01 11:20:34;;;;;;;;;;;1.80;99.90;;;;;;4990634;28;20028;-66
2022/01/01 11:23:05;;;;;;;;;;;1.70;99.90;;;;;;4986609;28;19939;-67
2022/01/01 11:25:32;;;;;;;;;;;1.80;99.90;;;;;;4990809;28;20948;-67
2022/01/01 11:27:59;;;;;;;;;;;1.80;99.90;;;;;;4991352;28;20020;-64
2022/01/01 11:30:30;;;;;;;;;;;1.70;99.90;;;;;;4987998;28;19995;-68
2022/01/01 11:33:06;;;;;;;;;;;1.80;99.90;;;;;;4988354;28;19932;-69
2022/01/01 11:35:34;;;;;;;;;;;1.80;99.90;;;;;;4989138;28;21248;-66
2022/01/01 11:38:11;;;;;;;;;;;1.80;99.90;;;;;;4991135;28;20024;-66
2022/01/01 11:40:47;;;;;;;;;;;1.80;99.90;;;;;;4989828;28;19940;-65
2022/01/01 11:43:32;;;;;;;;;;;1.80;99.90;;;;;;4991276;28;19925;-65
2022/01/01 11:46:10;;;;;;;;;;;1.80;99.90;;;;;;4990427;28;19948;-66
2022/01/01 11:48:41;;;;;;;;;;;1.80;99.90;;;;;;4990160;28;19939;-66
2022/01/01 11:51:21;;;;;;;;;;;1.80;99.90;;;;;;4993770;28;19935;-66
2022/01/01 11:54:07;;;;;;;;;;;1.80;99.90;;;;;;4988801;28;19991;-65
2022/01/01 11:56:49;;;;;;;;;;;1.80;99.90;;;;;;4991291;28;21307;-65
2022/01/01 11:59:28;;;;;;;;;;;1.80;99.90;;;;;;4990537;28;20750;-68
2022/01/01 12:01:56;;;;;;;;;;;1.80;99.90;;;;;;4991390;28;19988;-65
2022/01/01 12:04:31;;;;;;;;;;;1.80;99.90;;;;;;4989652;28;19929;-65
2022/01/01 12:07:16;;;;;;;;;;;1.70;99.90;;;;;;4991839;28;19930;-66
2022/01/01 12:09:55;;;;;;;;;;;1.70;99.90;;;;;;4991374;28;20003;-67
2022/01/01 12:12:34;;;;;;;;;;;1.70;99.90;;;;;;4990302;28;19929;-65
2022/01/01 12:15:02;;;;;;;;;;;1.70;99.90;;;;;;4988211;28;20058;-66
2022/01/01 12:17:39;;;;;;;;;;;1.60;99.90;;;;;;4988258;28;20361;-65
2022/01/01 12:20:15;;;;;;;;;;;1.60;99.90;;;;;;4989287;28;19930;-65
2022/01/01 12:22:46;;;;;;;;;;;1.60;99.90;;;;;;4985214;28;19940;-69
2022/01/01 12:25:14;;;;;;;;;;;1.60;99.90;;;;;;4990611;28;19930;-67
2022/01/01 12:27:47;;;;;;;;;;;1.60;99.90;;;;;;4986570;28;20028;-69
2022/01/01 12:30:14;;;;;;;;;;;1.70;99.90;;;;;;4986313;28;20029;-66
2022/01/01 12:32:45;;;;;;;;;;;1.60;99.90;;;;;;4985137;28;20324;-66
2022/01/01 12:35:16;;;;;;;;;;;1.60;99.90;;;;;;4988876;28;20432;-69
2022/01/01 12:37:43;;;;;;;;;;;1.50;99.90;;;;;;4986923;28;19949;-70
2022/01/01 12:40:11;;;;;;;;;;;1.50;99.90;;;;;;4987341;28;20385;-66
2022/01/01 12:42:37;;;;;;;;;;;1.50;99.90;;;;;;4984145;28;19933;-67
2022/01/01 12:45:06;;;;;;;;;;;1.40;99.90;;;;;;4988613;28;20054;-68
2022/01/01 12:47:34;;;;;;;;;;;1.40;99.90;;;;;;4986548;28;20142;-65
2022/01/01 12:50:03;;;;;;;;;;;1.40;99.90;;;;;;4988345;28;19941;-68
2022/01/01 12:52:30;;;;;;;;;;;1.40;99.90;;;;;;4990594;28;19933;-69
2022/01/01 12:54:58;;;;;;;;;;;1.50;99.90;;;;;;4994609;28;20036;-66
2022/01/01 12:57:31;;;;;;;;;;;1.50;99.90;;;;;;4993287;28;19929;-64
2022/01/01 13:00:18;;;;;;;;;;;1.50;99.90;;;;;;4995586;28;19957;-67
2022/01/01 13:02:45;;;;;;;;;;;1.50;99.90;;;;;;4989431;28;19983;-65
2022/01/01 13:05:15;;;;;;;;;;;1.60;99.90;;;;;;4995791;28;19925;-68
2022/01/01 13:07:42;;;;;;;;;;;1.60;99.90;;;;;;4992132;28;19972;-65
2022/01/01 13:10:11;;;;;;;;;;;1.60;99.90;;;;;;4994894;28;20023;-68
2022/01/01 13:12:38;;;;;;;;;;;1.60;99.90;;;;;;4992323;28;20346;-66
2022/01/01 13:15:05;;;;;;;;;;;1.50;99.90;;;;;;4994118;28;20027;-67
2022/01/01 13:17:32;;;;;;;;;;;1.60;99.90;;;;;;4993413;28;19930;-66
2022/01/01 13:20:01;;;;;;;;;;;1.60;99.90;;;;;;4994664;28;20420;-68
2022/01/01 13:22:28;;;;;;;;;;;1.60;99.90;;;;;;4992152;28;20003;-68
2022/01/01 13:24:56;;;;;;;;;;;1.50;99.90;;;;;;4993687;28;19925;-67
2022/01/01 13:27:27;;;;;;;;;;;1.50;99.90;;;;;;4996419;28;20259;-64
2022/01/01 13:29:54;;;;;;;;;;;1.40;99.90;;;;;;4992058;28;19930;-66
2022/01/01 13:32:21;;;;;;;;;;;1.40;99.90;;;;;;4993616;28;20069;-66
2022/01/01 13:34:49;;;;;;;;;;;1.40;99.90;;;;;;4989769;28;20380;-67
2022/01/01 13:37:21;;;;;;;;;;;1.40;99.90;;;;;;4994180;28;19964;-65
2022/01/01 13:39:47;;;;;;;;;;;1.40;99.90;;;;;;4995051;28;19926;-66
2022/01/01 13:42:18;;;;;;;;;;;1.40;99.90;;;;;;4990951;28;19976;-67
2022/01/01 13:44:45;;;;;;;;;;;1.40;99.90;;;;;;4992475;28;19996;-67
2022/01/01 13:47:13;;;;;;;;;;;1.40;99.90;;;;;;4989857;28;20445;-66
2022/01/01 13:49:40;;;;;;;;;;;1.50;99.90;;;;;;4993915;28;19944;-64
2022/01/01 13:52:08;;;;;;;;;;;1.50;99.90;;;;;;4991136;28;20028;-66
2022/01/01 13:54:37;;;;;;;;;;;1.50;99.90;;;;;;4990521;28;19952;-67
2022/01/01 13:57:07;;;;;;;;;;;1.50;99.90;;;;;;4994756;28;19948;-65
2022/01/01 13:59:35;;;;;;;;;;;1.50;99.90;;;;;;4993720;28;20601;-65
2022/01/01 14:02:06;;;;;;;;;;;1.60;99.90;;;;;;4992789;28;19936;-66
2022/01/01 14:04:38;;;;;;;;;;;1.60;99.90;;;;;;4991576;28;19940;-66
2022/01/01 14:07:23;;;;;;;;;;;1.60;99.90;;;;;;4992396;28;19948;-69
2022/01/01 14:10:16;;;;;;;;;;;1.60;99.90;;;;;;4993033;28;19967;-65
2022/01/01 14:12:50;;;;;;;;;;;1.50;99.90;;;;;;4984701;28;20074;-69
2022/01/01 14:15:18;;;;;;;;;;;1.60;99.90;;;;;;4994110;28;19925;-68
2022/01/01 14:17:48;;;;;;;;;;;1.60;99.90;;;;;;4991944;28;20009;-67
2022/01/01 14:20:19;;;;;;;;;;;1.50;99.90;;;;;;4992008;28;19937;-68
2022/01/01 14:22:46;;;;;;;;;;;1.60;99.90;;;;;;4990626;28;19987;-66
2022/01/01 14:25:13;;;;;;;;;;;1.50;99.90;;;;;;4992042;28;19929;-66
2022/01/01 14:27:40;;;;;;;;;;;1.50;99.90;;;;;;4993064;28;19929;-66
2022/01/01 14:30:07;;;;;;;;;;;1.50;99.90;;;;;;4992859;28;19929;-67
2022/01/01 14:32:34;;;;;;;;;;;1.50;99.90;;;;;;4989620;28;19926;-68
2022/01/01 14:35:02;;;;;;;;;;;1.50;99.90;;;;;;4993446;28;21535;-66
2022/01/01 14:37:30;;;;;;;;;;;1.50;99.90;;;;;;4988779;28;19933;-65
2022/01/01 14:39:57;;;;;;;;;;;1.50;99.90;;;;;;4991674;28;19945;-65
2022/01/01 14:42:24;;;;;;;;;;;1.50;99.90;;;;;;4990118;28;20071;-67
2022/01/01 14:44:51;;;;;;;;;;;1.50;99.90;;;;;;4992602;28;19936;-68
2022/01/01 14:47:27;;;;;;;;;;;1.50;99.90;;;;;;4990294;28;21124;-66